EGMD/LYX METAR and TAF weather

Enter ICAO airport designator
Station Type Date Time Source
EGMD METAR 2019/12/06 03:50 UTC NOAA

EGMD 060350Z AUTO 23022KT 4700 -RA OVC003/// 11/11 Q1011 RERA


Station Type Date Time Source
EGMD Decoded METAR 2019/12/06 03:50 UTC NOAA

Lydd Airport , United Kingdom (EGMD) 50-57N 000-56E
Dec 05, 2019 - 10:50 PM EST / 2019.12.06 0350 UTC
Wind: from the SW (230 degrees) at 25 MPH (22 KT):0
Visibility: 2 mile(s):0
Sky conditions: overcast
Weather: light rain
Temperature: 51 F (11 C)
Dew Point: 51 F (11 C)
Relative Humidity: 100%
Pressure (altimeter): 29.85 in. Hg (1011 hPa)
ob: EGMD 060350Z AUTO 23022KT 4700 -RA OVC003/// 11/11 Q1011 RERA
cycle: 4

Station Type Date Time Source
EGMD TAF UTC NOAA

Error!

Example: see airport list